createdAt,value
2017-12-19T00:00:25.486Z,3.55
2017-12-19T00:01:25.498Z,3.68
2017-12-19T00:02:25.506Z,3.68
2017-12-19T00:03:25.523Z,3.68
2017-12-19T00:04:25.533Z,3.51
2017-12-19T00:05:25.543Z,3.62
2017-12-19T00:06:25.556Z,3.54
2017-12-19T00:07:25.571Z,3.61
2017-12-19T00:08:25.581Z,3.48
2017-12-19T00:09:25.645Z,3.48
2017-12-19T00:10:25.603Z,3.45
2017-12-19T00:11:25.616Z,3.54
2017-12-19T00:12:25.628Z,3.39
2017-12-19T00:13:25.641Z,3.39
2017-12-19T00:14:25.652Z,3.35
2017-12-19T00:15:25.668Z,3.48
2017-12-19T00:16:25.679Z,3.51
2017-12-19T00:17:25.688Z,3.48
2017-12-19T00:18:25.702Z,3.45
2017-12-19T00:19:25.711Z,3.40
2017-12-19T00:20:25.721Z,3.47
2017-12-19T00:21:25.734Z,3.54
2017-12-19T00:22:25.749Z,3.42
2017-12-19T00:23:25.763Z,3.55
2017-12-19T00:24:25.768Z,3.58
2017-12-19T00:25:25.781Z,3.58
2017-12-19T00:26:25.791Z,3.54
2017-12-19T00:27:25.808Z,3.55
2017-12-19T00:28:25.822Z,3.60
2017-12-19T00:29:25.833Z,3.54
2017-12-19T00:30:25.839Z,3.62
2017-12-19T00:31:25.852Z,3.72
2017-12-19T00:32:25.865Z,3.62
2017-12-19T00:33:25.874Z,3.60
2017-12-19T00:34:25.887Z,3.60
2017-12-19T00:35:25.898Z,3.58
2017-12-19T00:36:25.911Z,3.51
2017-12-19T00:37:25.922Z,3.55
2017-12-19T00:38:25.933Z,3.57
2017-12-19T00:39:25.956Z,3.58
2017-12-19T00:40:25.960Z,3.61
2017-12-19T00:41:25.970Z,3.58
2017-12-19T00:42:25.983Z,3.57
2017-12-19T00:43:25.997Z,3.57
2017-12-19T00:44:26.004Z,3.54
2017-12-19T00:45:26.017Z,3.52
2017-12-19T00:46:26.028Z,3.55
2017-12-19T00:47:26.043Z,3.57
2017-12-19T00:48:26.050Z,3.58
2017-12-19T00:49:26.061Z,3.58
2017-12-19T00:50:26.075Z,3.62
2017-12-19T00:51:26.086Z,3.60
2017-12-19T00:52:26.096Z,3.60
2017-12-19T00:53:26.108Z,3.55
2017-12-19T00:54:26.120Z,3.68
2017-12-19T00:55:26.131Z,3.62
2017-12-19T00:56:26.148Z,3.65
2017-12-19T00:57:26.161Z,3.66
2017-12-19T00:58:26.181Z,3.65
2017-12-19T00:59:26.179Z,3.58
2017-12-19T01:00:26.196Z,3.60
2017-12-19T01:01:26.204Z,3.58
2017-12-19T01:02:26.215Z,3.54
2017-12-19T01:03:26.227Z,3.47
2017-12-19T01:04:26.239Z,3.43
2017-12-19T01:05:26.254Z,3.51
2017-12-19T01:06:26.261Z,3.52
2017-12-19T01:07:26.273Z,3.48
2017-12-19T01:08:26.290Z,3.57
2017-12-19T01:09:26.300Z,3.58
2017-12-19T01:10:26.308Z,3.52
2017-12-19T01:11:26.318Z,3.62
2017-12-19T01:12:26.336Z,3.58
2017-12-19T01:13:26.346Z,3.57
2017-12-19T01:14:26.359Z,3.50
2017-12-19T01:15:26.367Z,3.58
2017-12-19T01:16:26.380Z,3.51
2017-12-19T01:17:26.392Z,3.51
2017-12-19T01:18:26.402Z,3.72
2017-12-19T01:19:26.414Z,3.57
2017-12-19T01:20:26.429Z,3.65
2017-12-19T01:21:26.437Z,3.61
2017-12-19T01:22:26.448Z,3.61
2017-12-19T01:23:26.460Z,3.62
2017-12-19T01:24:26.472Z,3.61
2017-12-19T01:25:26.486Z,3.60
2017-12-19T01:26:26.498Z,3.61
2017-12-19T01:27:26.541Z,3.70
2017-12-19T01:28:26.521Z,3.68
2017-12-19T01:29:26.533Z,3.61
2017-12-19T01:30:26.545Z,3.65
2017-12-19T01:31:26.555Z,3.68
2017-12-19T01:32:26.570Z,3.66
2017-12-19T01:33:26.579Z,3.75
2017-12-19T01:34:26.590Z,3.68
2017-12-19T01:35:26.603Z,3.70
2017-12-19T01:36:26.618Z,3.72
2017-12-19T01:37:26.631Z,3.65
2017-12-19T01:38:26.638Z,3.68
2017-12-19T01:39:26.651Z,3.66
2017-12-19T01:40:26.662Z,3.76
2017-12-19T01:41:26.673Z,3.62
2017-12-19T01:42:26.685Z,3.66
2017-12-19T01:43:26.699Z,3.72
2017-12-19T01:44:26.710Z,3.66
2017-12-19T01:45:26.722Z,3.68
2017-12-19T01:46:26.833Z,3.65
2017-12-19T01:47:26.745Z,3.70
2017-12-19T01:48:26.762Z,3.76
2017-12-19T01:49:26.770Z,3.58
2017-12-19T01:50:26.780Z,3.65
2017-12-19T01:51:26.798Z,3.65
2017-12-19T01:52:26.808Z,3.60
2017-12-19T01:53:26.818Z,3.65
2017-12-19T01:54:26.829Z,3.70
2017-12-19T01:55:26.840Z,3.66
2017-12-19T01:56:26.858Z,3.69
2017-12-19T01:57:26.865Z,3.65
2017-12-19T01:58:26.875Z,3.62
2017-12-19T01:59:26.889Z,3.66
2017-12-19T02:00:26.904Z,3.70
2017-12-19T02:01:26.916Z,3.69
2017-12-19T02:02:26.925Z,3.60
2017-12-19T02:03:26.937Z,3.62
2017-12-19T02:04:26.948Z,3.68
2017-12-19T02:05:26.966Z,3.66
2017-12-19T02:06:26.972Z,3.75
2017-12-19T02:07:26.983Z,3.76
2017-12-19T02:08:26.996Z,3.72
2017-12-19T02:09:27.008Z,3.58
2017-12-19T02:10:27.024Z,3.57
2017-12-19T02:11:27.029Z,3.62
2017-12-19T02:12:27.042Z,3.62
2017-12-19T02:13:27.055Z,3.61
2017-12-19T02:14:27.069Z,3.65
2017-12-19T02:15:27.075Z,3.69
2017-12-19T02:16:27.155Z,3.54
2017-12-19T02:17:27.103Z,3.60
2017-12-19T02:18:27.114Z,3.55
2017-12-19T02:19:27.126Z,3.58
2017-12-19T02:20:27.145Z,3.65
2017-12-19T02:21:27.149Z,3.62
2017-12-19T02:22:27.154Z,3.72
2017-12-19T02:23:27.171Z,3.65
2017-12-19T02:24:27.180Z,3.76
2017-12-19T02:25:27.193Z,3.60
2017-12-19T02:26:27.204Z,3.70
2017-12-19T02:27:27.215Z,3.72
2017-12-19T02:28:27.227Z,3.68
2017-12-19T02:29:27.253Z,3.75
2017-12-19T02:30:27.252Z,3.75
2017-12-19T02:31:27.260Z,3.76
2017-12-19T02:32:27.273Z,3.73
2017-12-19T02:33:27.285Z,3.76
2017-12-19T02:34:27.296Z,3.69
2017-12-19T02:35:27.307Z,3.73
2017-12-19T02:36:27.320Z,3.68
2017-12-19T02:37:27.332Z,3.75
2017-12-19T02:38:27.350Z,3.68
2017-12-19T02:39:27.358Z,3.68
2017-12-19T02:40:27.368Z,3.66
2017-12-19T02:41:27.382Z,3.68
2017-12-19T02:42:27.390Z,3.65
2017-12-19T02:43:27.402Z,3.62
2017-12-19T02:44:27.416Z,3.52
2017-12-19T02:45:27.428Z,3.54
2017-12-19T02:46:27.438Z,3.68
2017-12-19T02:47:27.452Z,3.65
2017-12-19T02:48:27.469Z,3.57
2017-12-19T02:49:27.477Z,3.62
2017-12-19T02:50:27.484Z,3.66
2017-12-19T02:51:27.502Z,3.62
2017-12-19T02:52:27.510Z,3.62
2017-12-19T02:53:27.522Z,3.70
2017-12-19T02:54:27.532Z,3.50
2017-12-19T02:55:27.544Z,3.62
2017-12-19T02:56:27.556Z,3.58
2017-12-19T02:57:27.567Z,3.58
2017-12-19T02:58:27.581Z,3.68
2017-12-19T02:59:27.591Z,3.57
2017-12-19T03:00:27.602Z,3.62
2017-12-19T03:01:27.615Z,3.61
2017-12-19T03:02:27.628Z,3.58
2017-12-19T03:03:27.637Z,3.55
2017-12-19T03:04:27.651Z,3.57
2017-12-19T03:05:27.664Z,3.58
2017-12-19T03:06:27.677Z,3.51
2017-12-19T03:07:27.686Z,3.66
2017-12-19T03:08:27.702Z,3.62
2017-12-19T03:09:27.710Z,3.62
2017-12-19T03:10:27.720Z,3.58
2017-12-19T03:11:27.733Z,3.58
2017-12-19T03:12:27.746Z,3.55
2017-12-19T03:13:27.758Z,3.66
2017-12-19T03:14:27.771Z,3.57
2017-12-19T03:15:27.784Z,3.68
2017-12-19T03:16:27.793Z,3.52
2017-12-19T03:17:27.804Z,3.57
2017-12-19T03:18:27.816Z,3.62
2017-12-19T03:19:27.830Z,3.61
2017-12-19T03:20:27.838Z,3.66
2017-12-19T03:21:27.852Z,3.68
2017-12-19T03:22:27.863Z,3.68
2017-12-19T03:23:27.880Z,3.58
2017-12-19T03:24:27.886Z,3.65
2017-12-19T03:25:27.897Z,3.68
2017-12-19T03:26:27.909Z,3.66
2017-12-19T03:27:27.979Z,3.62
2017-12-19T03:28:27.963Z,3.66
2017-12-19T03:29:27.945Z,3.72
2017-12-19T03:30:27.961Z,3.69
2017-12-19T03:31:27.971Z,3.66
2017-12-19T03:32:27.996Z,3.73
2017-12-19T03:33:27.991Z,3.66
2017-12-19T03:34:28.002Z,3.62
2017-12-19T03:35:28.015Z,3.62
2017-12-19T03:36:28.028Z,3.66
2017-12-19T03:37:28.038Z,3.73
2017-12-19T03:38:28.055Z,3.68
2017-12-19T03:39:28.064Z,3.70
2017-12-19T03:40:28.082Z,3.69
2017-12-19T03:41:28.290Z,3.75
2017-12-19T03:42:28.097Z,3.70
2017-12-19T03:43:28.109Z,3.66
2017-12-19T03:44:28.123Z,3.72
2017-12-19T03:45:28.137Z,3.68
2017-12-19T03:46:28.147Z,3.73
2017-12-19T03:47:28.156Z,3.72
2017-12-19T03:48:28.168Z,3.65
2017-12-19T03:49:28.181Z,3.70
2017-12-19T03:50:28.194Z,3.72
2017-12-19T03:51:28.205Z,3.65
2017-12-19T03:52:28.216Z,3.70
2017-12-19T03:53:28.229Z,3.72
2017-12-19T03:54:28.239Z,3.61
2017-12-19T03:55:28.252Z,3.69
2017-12-19T03:56:28.262Z,3.66
2017-12-19T03:57:28.274Z,3.62
2017-12-19T03:58:28.284Z,3.62
2017-12-19T03:59:28.297Z,3.61
2017-12-19T04:00:28.310Z,3.58
2017-12-19T04:01:28.321Z,3.51
2017-12-19T04:02:28.334Z,3.52
2017-12-19T04:03:28.346Z,3.65
2017-12-19T04:04:28.362Z,3.58
2017-12-19T04:05:28.367Z,3.52
2017-12-19T04:06:28.380Z,3.60
2017-12-19T04:07:28.390Z,3.62
2017-12-19T04:08:28.410Z,3.52
2017-12-19T04:09:28.416Z,3.58
2017-12-19T04:10:28.428Z,3.70
2017-12-19T04:11:28.438Z,3.65
2017-12-19T04:12:28.458Z,3.60
2017-12-19T04:13:28.462Z,3.55
2017-12-19T04:14:28.478Z,3.68
2017-12-19T04:15:28.481Z,3.55
2017-12-19T04:16:28.494Z,3.60
2017-12-19T04:17:28.509Z,3.61
2017-12-19T04:18:28.519Z,3.58
2017-12-19T04:19:28.527Z,3.55
2017-12-19T04:20:28.547Z,3.55
2017-12-19T04:21:28.555Z,3.60
2017-12-19T04:22:28.565Z,3.68
2017-12-19T04:23:28.580Z,3.65
2017-12-19T04:24:28.590Z,3.58
2017-12-19T04:25:28.601Z,3.58
2017-12-19T04:26:28.612Z,3.61
2017-12-19T04:27:28.627Z,3.62
2017-12-19T04:28:28.640Z,3.52
2017-12-19T04:29:28.650Z,3.68
2017-12-19T04:30:28.658Z,3.60
2017-12-19T04:31:28.671Z,3.61
2017-12-19T04:32:28.682Z,3.70
2017-12-19T04:33:28.697Z,3.69
2017-12-19T04:34:28.710Z,3.48
2017-12-19T04:35:28.718Z,3.68
2017-12-19T04:36:28.732Z,3.66
2017-12-19T04:37:28.741Z,3.62
2017-12-19T04:38:28.755Z,3.75
2017-12-19T04:39:28.765Z,3.69
2017-12-19T04:40:28.805Z,3.68
2017-12-19T04:41:28.789Z,3.70
2017-12-19T04:42:28.800Z,3.73
2017-12-19T04:43:28.816Z,3.73
2017-12-19T04:44:28.824Z,3.75
2017-12-19T04:45:28.840Z,3.68
2017-12-19T04:46:28.847Z,3.65
2017-12-19T04:47:28.860Z,3.68
2017-12-19T04:48:28.874Z,3.68
2017-12-19T04:49:28.890Z,3.65
2017-12-19T04:50:28.896Z,3.66
2017-12-19T04:51:28.906Z,3.75
2017-12-19T04:52:28.918Z,3.73
2017-12-19T04:53:28.932Z,3.70
2017-12-19T04:54:28.942Z,3.76
2017-12-19T04:55:28.957Z,3.72
2017-12-19T04:56:29.020Z,3.78
2017-12-19T04:57:28.982Z,3.68
2017-12-19T04:58:28.993Z,3.68
2017-12-19T04:59:29.006Z,3.72
2017-12-19T05:00:29.018Z,3.62
2017-12-19T05:01:29.029Z,3.73
2017-12-19T05:02:29.044Z,3.68
2017-12-19T05:03:29.050Z,3.73
2017-12-19T05:04:29.064Z,3.69
2017-12-19T05:05:29.075Z,3.76
2017-12-19T05:06:29.088Z,3.69
2017-12-19T05:07:29.096Z,3.72
2017-12-19T05:08:29.105Z,3.68
2017-12-19T05:09:29.121Z,3.68
2017-12-19T05:10:29.232Z,3.68
2017-12-19T05:11:29.138Z,3.65
2017-12-19T05:12:29.156Z,3.68
2017-12-19T05:13:29.188Z,3.73
2017-12-19T05:14:29.176Z,3.65
2017-12-19T05:15:29.190Z,3.62
2017-12-19T05:16:29.201Z,3.73
2017-12-19T05:17:29.212Z,3.73
2017-12-19T05:18:29.222Z,3.57
2017-12-19T05:19:29.232Z,3.72
2017-12-19T05:20:29.294Z,3.72
2017-12-19T05:21:29.254Z,3.70
2017-12-19T05:22:29.268Z,3.76
2017-12-19T05:23:29.276Z,3.66
2017-12-19T05:24:29.288Z,3.72
2017-12-19T05:25:29.306Z,3.72
2017-12-19T05:26:29.311Z,3.76
2017-12-19T05:27:29.323Z,3.72
2017-12-19T05:28:29.335Z,3.72
2017-12-19T05:29:29.346Z,3.75
2017-12-19T05:30:29.357Z,3.78
2017-12-19T05:31:29.370Z,3.80
2017-12-19T05:32:29.386Z,3.79
2017-12-19T05:33:29.393Z,3.70
2017-12-19T05:34:29.406Z,3.78
2017-12-19T05:35:29.418Z,3.70
2017-12-19T05:36:29.434Z,3.72
2017-12-19T05:37:29.440Z,3.75
2017-12-19T05:38:29.462Z,3.75
2017-12-19T05:39:29.462Z,3.73
2017-12-19T05:40:29.473Z,3.84
2017-12-19T05:41:29.487Z,3.78
2017-12-19T05:42:29.509Z,3.84
2017-12-19T05:43:29.509Z,3.79
2017-12-19T05:44:29.524Z,3.91
2017-12-19T05:45:29.536Z,3.87
2017-12-19T05:46:29.547Z,3.87
2017-12-19T05:47:29.556Z,3.80
2017-12-19T05:48:29.569Z,3.79
2017-12-19T05:49:29.582Z,3.79
2017-12-19T05:50:29.592Z,3.76
2017-12-19T05:51:29.604Z,3.83
2017-12-19T05:52:29.618Z,3.86
2017-12-19T05:53:29.628Z,3.86
2017-12-19T05:54:29.645Z,3.80
2017-12-19T05:55:29.650Z,3.87
2017-12-19T05:56:29.671Z,3.79
2017-12-19T05:57:29.687Z,3.79
2017-12-19T05:58:29.692Z,3.78
2017-12-19T05:59:29.698Z,3.76
2017-12-19T06:00:29.721Z,3.80
2017-12-19T06:01:29.723Z,3.84
2017-12-19T06:02:29.737Z,3.83
2017-12-19T06:03:29.748Z,3.96
2017-12-19T06:04:29.760Z,3.86
2017-12-19T06:05:33.776Z,3.79
2017-12-19T06:06:33.287Z,3.91
2017-12-19T06:07:29.807Z,3.90
2017-12-19T06:09:29.822Z,3.83
2017-12-19T06:10:29.833Z,3.84
2017-12-19T06:11:29.847Z,3.87
2017-12-19T06:12:29.854Z,3.84
2017-12-19T06:13:29.868Z,3.80
2017-12-19T06:14:29.880Z,3.86
2017-12-19T06:15:29.891Z,3.86
2017-12-19T06:16:29.902Z,3.83
2017-12-19T06:17:29.916Z,3.84
2017-12-19T06:18:29.927Z,3.90
2017-12-19T06:19:29.941Z,3.84
2017-12-19T06:20:29.956Z,3.98
2017-12-19T06:21:29.962Z,3.79
2017-12-19T06:22:29.979Z,3.90
2017-12-19T06:23:29.986Z,3.88
2017-12-19T06:24:29.998Z,3.87
2017-12-19T06:25:30.013Z,3.90
2017-12-19T06:26:30.029Z,3.94
2017-12-19T06:27:30.034Z,3.93
2017-12-19T06:28:30.045Z,3.94
2017-12-19T06:29:30.059Z,3.93
2017-12-19T06:30:30.090Z,3.97
2017-12-19T06:31:30.081Z,3.88
2017-12-19T06:32:30.215Z,3.88
2017-12-19T06:33:30.130Z,3.94
2017-12-19T06:34:30.129Z,3.94
2017-12-19T06:35:30.128Z,3.91
2017-12-19T06:36:30.166Z,3.93
2017-12-19T06:37:30.159Z,3.93
2017-12-19T06:38:30.169Z,3.91
2017-12-19T06:39:30.180Z,4.04
2017-12-19T06:40:30.189Z,3.93
2017-12-19T06:41:30.202Z,4.02
2017-12-19T06:42:30.227Z,4.00
2017-12-19T06:43:30.231Z,3.93
2017-12-19T06:44:30.249Z,4.02
2017-12-19T06:45:30.251Z,4.04
2017-12-19T06:46:30.261Z,3.88
2017-12-19T06:47:30.274Z,4.05
2017-12-19T06:48:30.301Z,3.93
2017-12-19T06:49:30.298Z,3.97
2017-12-19T06:50:30.313Z,3.97
2017-12-19T06:51:30.325Z,3.90
2017-12-19T06:52:30.334Z,3.90
2017-12-19T06:53:30.344Z,3.96
2017-12-19T06:54:30.355Z,3.96
2017-12-19T06:55:30.373Z,3.96
2017-12-19T06:56:30.379Z,3.90
2017-12-19T06:57:30.392Z,4.02
2017-12-19T06:58:30.405Z,3.94
2017-12-19T06:59:30.415Z,3.88
2017-12-19T07:00:30.425Z,3.94
2017-12-19T07:01:30.439Z,4.02
2017-12-19T07:02:30.448Z,4.00
2017-12-19T07:03:30.479Z,4.08
2017-12-19T07:04:30.478Z,4.06
2017-12-19T07:05:30.534Z,3.97
2017-12-19T07:06:30.498Z,4.09
2017-12-19T07:07:30.504Z,4.09
2017-12-19T07:08:30.515Z,4.02
2017-12-19T07:09:30.541Z,4.05
2017-12-19T07:10:30.540Z,3.91
2017-12-19T07:11:30.560Z,3.93
2017-12-19T07:12:30.559Z,3.93
2017-12-19T07:13:30.572Z,3.96
2017-12-19T07:14:30.583Z,3.96
2017-12-19T07:15:30.595Z,4.05
2017-12-19T07:16:30.609Z,4.05
2017-12-19T07:17:30.624Z,4.06
2017-12-19T07:18:30.631Z,4.02
2017-12-19T07:19:30.643Z,4.02
2017-12-19T07:20:30.656Z,4.11
2017-12-19T07:21:30.672Z,4.06
2017-12-19T07:22:30.694Z,4.08
2017-12-19T07:23:30.703Z,4.04
2017-12-19T07:24:30.703Z,4.08
2017-12-19T07:25:30.721Z,4.00
2017-12-19T07:26:30.928Z,4.04
2017-12-19T07:27:30.941Z,4.05
2017-12-19T07:28:30.754Z,4.09
2017-12-19T07:30:30.774Z,4.14
2017-12-19T07:31:30.788Z,4.15
2017-12-19T07:32:30.803Z,4.16
2017-12-19T07:33:30.810Z,4.06
2017-12-19T07:34:31.315Z,3.97
2017-12-19T07:35:30.832Z,4.05
2017-12-19T07:36:30.845Z,4.14
2017-12-19T07:37:30.857Z,4.12
2017-12-19T07:38:30.870Z,4.15
2017-12-19T07:39:30.889Z,4.11
2017-12-19T07:40:30.892Z,4.11
2017-12-19T07:41:30.905Z,4.15
2017-12-19T07:42:30.917Z,4.14
2017-12-19T07:43:30.927Z,4.14
2017-12-19T07:44:30.954Z,4.06
2017-12-19T07:45:30.953Z,4.20
2017-12-19T07:46:30.964Z,4.08
2017-12-19T07:47:30.974Z,4.18
2017-12-19T07:48:30.986Z,4.14
2017-12-19T07:49:30.998Z,4.20
2017-12-19T07:50:31.009Z,4.04
2017-12-19T07:51:31.021Z,4.14
2017-12-19T07:52:31.034Z,4.09
2017-12-19T07:53:31.058Z,4.14
2017-12-19T07:54:31.055Z,4.11
2017-12-19T07:55:31.340Z,4.16
2017-12-19T07:56:31.083Z,4.16
2017-12-19T07:57:31.095Z,4.16
2017-12-19T07:58:31.116Z,4.11
2017-12-19T07:59:31.201Z,4.15
2017-12-19T08:00:33.913Z,4.23
2017-12-19T08:01:32.568Z,4.18
2017-12-19T08:02:31.163Z,4.22
2017-12-19T08:03:31.164Z,4.24
2017-12-19T08:04:31.178Z,4.15
2017-12-19T08:05:31.188Z,4.26
2017-12-19T08:06:31.227Z,4.30
2017-12-19T08:07:31.224Z,4.29
2017-12-19T08:08:31.224Z,4.30
2017-12-19T08:10:31.249Z,4.33
2017-12-19T08:11:31.265Z,4.24
2017-12-19T08:12:36.174Z,4.32
2017-12-19T08:13:35.721Z,4.23
2017-12-19T08:14:35.498Z,4.29
2017-12-19T08:15:31.621Z,4.18
2017-12-19T08:16:31.320Z,4.22
2017-12-19T08:17:31.333Z,4.20
2017-12-19T08:18:31.368Z,4.16
2017-12-19T08:19:31.356Z,4.22
2017-12-19T08:20:31.367Z,4.18
2017-12-19T08:21:31.400Z,4.22
2017-12-19T08:22:34.758Z,4.23
2017-12-19T08:23:35.276Z,4.24
2017-12-19T08:24:31.417Z,4.22
2017-12-19T08:25:31.427Z,4.23
2017-12-19T08:26:31.440Z,4.29
2017-12-19T08:27:31.449Z,4.32
2017-12-19T08:28:31.461Z,4.32
2017-12-19T08:29:31.472Z,4.20
2017-12-19T08:30:31.485Z,4.26
2017-12-19T08:31:31.497Z,4.24
2017-12-19T08:32:31.569Z,4.30
2017-12-19T08:33:32.831Z,4.29
2017-12-19T08:34:31.749Z,4.30
2017-12-19T08:35:31.543Z,4.29
2017-12-19T08:36:31.571Z,4.27
2017-12-19T08:37:31.568Z,4.24
2017-12-19T08:38:31.983Z,4.15
2017-12-19T08:39:31.596Z,4.27
2017-12-19T08:40:31.618Z,4.30
2017-12-19T08:41:31.616Z,4.30
2017-12-19T08:42:31.630Z,4.33
2017-12-19T08:43:31.657Z,4.32
2017-12-19T08:44:31.655Z,4.30
2017-12-19T08:45:31.667Z,4.32
2017-12-19T08:46:31.676Z,4.40
2017-12-19T08:47:31.688Z,4.36
2017-12-19T08:48:31.702Z,4.34
2017-12-19T08:49:31.712Z,4.41
2017-12-19T08:50:31.727Z,4.41
2017-12-19T08:51:31.838Z,4.45
2017-12-19T08:52:31.749Z,4.45
2017-12-19T08:53:31.767Z,4.51
2017-12-19T08:54:31.772Z,4.48
2017-12-19T08:55:31.789Z,4.45
2017-12-19T08:56:31.798Z,4.50
2017-12-19T08:57:31.809Z,4.50
2017-12-19T08:58:31.821Z,4.55
2017-12-19T08:59:31.836Z,4.51
2017-12-19T09:00:31.846Z,4.55
2017-12-19T09:01:31.863Z,4.58
2017-12-19T09:02:31.874Z,4.55
2017-12-19T09:03:31.881Z,4.69
2017-12-19T09:04:31.893Z,4.58
2017-12-19T09:05:31.905Z,4.62
2017-12-19T09:06:31.932Z,4.55
2017-12-19T09:07:31.932Z,4.65
2017-12-19T09:08:31.945Z,4.62
2017-12-19T09:09:31.955Z,4.55
2017-12-19T09:10:31.968Z,4.69
2017-12-19T09:11:31.977Z,4.67
2017-12-19T09:12:31.993Z,4.65
2017-12-19T09:13:32.005Z,4.66
2017-12-19T09:14:32.487Z,4.58
2017-12-19T09:15:32.625Z,4.69
2017-12-19T09:16:32.168Z,4.66
2017-12-19T09:17:32.360Z,4.65
2017-12-19T09:18:32.066Z,4.65
2017-12-19T09:19:32.092Z,4.80
2017-12-19T09:20:32.088Z,4.75
2017-12-19T09:21:32.231Z,4.66
2017-12-19T09:22:32.549Z,4.77
2017-12-19T09:23:32.121Z,4.82
2017-12-19T09:24:32.135Z,4.70
2017-12-19T09:25:32.165Z,4.77
2017-12-19T09:26:32.157Z,4.77
2017-12-19T09:27:32.169Z,4.67
2017-12-19T09:28:32.626Z,4.73
2017-12-19T09:29:32.500Z,4.69
2017-12-19T09:30:32.205Z,4.77
2017-12-19T09:32:32.232Z,4.80
2017-12-19T09:33:32.243Z,4.80
2017-12-19T09:34:32.256Z,4.70
2017-12-19T09:35:32.268Z,4.89
2017-12-19T09:36:32.421Z,4.77
2017-12-19T09:37:32.292Z,4.84
2017-12-19T09:38:32.322Z,4.75
2017-12-19T09:39:33.028Z,4.84
2017-12-19T09:40:35.360Z,4.85
2017-12-19T09:41:32.344Z,4.80
2017-12-19T09:42:32.365Z,4.78
2017-12-19T09:43:32.368Z,4.89
2017-12-19T09:44:33.024Z,4.86
2017-12-19T09:45:33.102Z,4.91
2017-12-19T09:46:32.403Z,4.97
2017-12-19T09:47:32.433Z,4.99
2017-12-19T09:48:32.428Z,4.92
2017-12-19T09:49:32.460Z,5.00
2017-12-19T09:50:32.454Z,4.99
2017-12-19T09:51:32.469Z,5.02
2017-12-19T09:53:32.489Z,4.91
2017-12-19T09:54:32.527Z,4.96
2017-12-19T09:55:32.530Z,4.97
2017-12-19T09:56:32.531Z,5.06
2017-12-19T09:57:32.539Z,5.00
2017-12-19T09:58:32.552Z,4.97
2017-12-19T09:59:32.563Z,4.97
2017-12-19T10:00:32.576Z,5.06
2017-12-19T10:01:32.603Z,5.02
2017-12-19T10:02:32.603Z,5.02
2017-12-19T10:03:32.616Z,5.06
2017-12-19T10:04:32.659Z,5.03
2017-12-19T10:05:32.644Z,5.09
2017-12-19T10:06:32.662Z,5.12
2017-12-19T10:07:32.664Z,5.17
2017-12-19T10:08:32.677Z,5.13
2017-12-19T10:09:32.688Z,5.12
2017-12-19T10:10:33.031Z,5.12
2017-12-19T10:11:32.722Z,5.21
2017-12-19T10:12:32.725Z,5.21
2017-12-19T10:13:33.022Z,5.22
2017-12-19T10:14:32.750Z,5.25
2017-12-19T10:15:32.767Z,5.25
2017-12-19T10:16:32.776Z,5.22
2017-12-19T10:17:32.789Z,5.28
2017-12-19T10:18:32.802Z,5.35
2017-12-19T10:19:32.823Z,5.21
2017-12-19T10:20:32.836Z,5.31
2017-12-19T10:21:32.838Z,5.30
2017-12-19T10:22:33.136Z,5.42
2017-12-19T10:23:32.868Z,5.28
2017-12-19T10:24:32.906Z,5.38
2017-12-19T10:25:32.892Z,5.42
2017-12-19T10:26:32.971Z,5.49
2017-12-19T10:27:32.915Z,5.46
2017-12-19T10:29:32.959Z,5.46
2017-12-19T10:30:32.951Z,5.54
2017-12-19T10:31:33.270Z,5.51
2017-12-19T10:32:33.329Z,5.51
2017-12-19T10:33:33.008Z,5.46
2017-12-19T10:34:33.008Z,5.53
2017-12-19T10:35:33.039Z,5.46
2017-12-19T10:36:33.031Z,5.46
2017-12-19T10:37:33.043Z,5.45
2017-12-19T10:38:33.057Z,5.54
2017-12-19T10:39:33.077Z,5.56
2017-12-19T10:40:33.081Z,5.60
2017-12-19T10:41:33.094Z,5.68
2017-12-19T10:42:33.106Z,5.64
2017-12-19T10:43:33.168Z,5.68
2017-12-19T10:44:33.132Z,5.67
2017-12-19T10:45:33.145Z,5.65
2017-12-19T10:46:33.164Z,5.74
2017-12-19T10:47:33.177Z,5.76
2017-12-19T10:48:34.425Z,5.78
2017-12-19T10:49:33.209Z,5.72
2017-12-19T10:50:33.212Z,5.86
2017-12-19T10:51:33.223Z,5.81
2017-12-19T10:52:33.245Z,5.68
2017-12-19T10:53:33.251Z,5.79
2017-12-19T10:54:33.264Z,5.74
2017-12-19T10:55:33.274Z,5.91
2017-12-19T10:56:33.300Z,5.91
2017-12-19T10:57:35.415Z,5.75
2017-12-19T10:58:34.368Z,5.83
2017-12-19T10:59:33.355Z,5.82
2017-12-19T11:00:33.342Z,5.90
2017-12-19T11:01:33.359Z,5.81
2017-12-19T11:02:34.335Z,5.90
2017-12-19T11:03:33.379Z,5.81
2017-12-19T11:04:33.399Z,5.83
2017-12-19T11:05:33.408Z,5.90
2017-12-19T11:06:33.780Z,5.85
2017-12-19T11:07:33.431Z,5.82
2017-12-19T11:08:33.444Z,5.78
2017-12-19T11:09:33.457Z,5.86
2017-12-19T11:10:33.476Z,5.85
2017-12-19T11:11:33.493Z,5.82
2017-12-19T11:12:33.500Z,5.83
2017-12-19T11:13:33.530Z,5.97
2017-12-19T11:14:33.525Z,5.93
2017-12-19T11:15:35.731Z,6.01
2017-12-19T11:16:33.556Z,6.12
2017-12-19T11:17:33.561Z,5.99
2017-12-19T11:18:34.918Z,5.94
2017-12-19T11:19:33.590Z,5.99
2017-12-19T11:20:33.606Z,6.12
2017-12-19T11:21:33.678Z,5.99
2017-12-19T11:22:33.832Z,6.03
2017-12-19T11:23:33.643Z,6.12
2017-12-19T11:24:33.720Z,5.96
2017-12-19T11:25:33.671Z,6.03
2017-12-19T11:26:33.792Z,5.97
2017-12-19T11:27:33.695Z,5.94
2017-12-19T11:28:34.443Z,5.94
2017-12-19T11:29:33.721Z,5.94
2017-12-19T11:30:33.737Z,6.00
2017-12-19T11:31:33.747Z,5.91
2017-12-19T11:32:33.763Z,5.93
2017-12-19T11:33:33.786Z,5.99
2017-12-19T11:34:33.786Z,5.97
2017-12-19T11:35:33.816Z,5.86
2017-12-19T11:36:33.818Z,5.93
2017-12-19T11:37:33.831Z,5.99
2017-12-19T11:38:33.842Z,5.94
2017-12-19T11:39:33.851Z,5.96
2017-12-19T11:40:33.924Z,5.94
2017-12-19T11:41:33.880Z,6.08
2017-12-19T11:42:33.893Z,5.91
2017-12-19T11:43:33.905Z,5.86
2017-12-19T11:44:33.923Z,5.96
2017-12-19T11:45:33.932Z,5.86
2017-12-19T11:46:33.945Z,5.99
2017-12-19T11:47:33.975Z,5.99
2017-12-19T11:48:33.975Z,6.04
2017-12-19T11:49:33.985Z,6.08
2017-12-19T11:50:34.000Z,6.04
2017-12-19T11:51:34.010Z,6.09
2017-12-19T11:52:34.028Z,6.04
2017-12-19T11:53:34.041Z,6.08
2017-12-19T11:54:34.051Z,6.17
2017-12-19T11:55:34.069Z,6.11
2017-12-19T11:56:34.081Z,6.03
2017-12-19T11:57:34.104Z,6.12
2017-12-19T11:58:34.105Z,6.12
2017-12-19T11:59:34.118Z,6.08
2017-12-19T12:00:34.131Z,6.15
2017-12-19T12:01:34.156Z,6.19
2017-12-19T12:02:34.157Z,6.15
2017-12-19T12:03:34.174Z,6.19
2017-12-19T12:04:34.342Z,6.17
2017-12-19T12:05:34.203Z,6.14
2017-12-19T12:06:34.217Z,6.19
2017-12-19T12:07:34.225Z,6.17
2017-12-19T12:08:34.243Z,6.17
2017-12-19T12:09:34.252Z,6.21
2017-12-19T12:10:34.275Z,6.18
2017-12-19T12:11:34.280Z,6.19
2017-12-19T12:13:34.306Z,6.17
2017-12-19T12:14:36.030Z,6.09
2017-12-19T12:15:34.332Z,6.12
2017-12-19T12:16:34.995Z,6.12
2017-12-19T12:17:34.436Z,6.12
2017-12-19T12:18:35.496Z,6.12
2017-12-19T12:19:34.619Z,6.14
2017-12-19T12:20:34.402Z,6.08
2017-12-19T12:21:34.474Z,6.09
2017-12-19T12:22:34.543Z,6.12
2017-12-19T12:23:34.440Z,6.19
2017-12-19T12:24:34.455Z,6.14
2017-12-19T12:25:34.896Z,6.15
2017-12-19T12:26:34.480Z,6.18
2017-12-19T12:27:34.494Z,6.14
2017-12-19T12:28:34.522Z,6.14
2017-12-19T12:29:34.518Z,6.21
2017-12-19T12:30:34.542Z,6.27
2017-12-19T12:31:34.551Z,6.22
2017-12-19T12:32:34.578Z,6.34
2017-12-19T12:33:34.583Z,6.30
2017-12-19T12:34:34.591Z,6.37
2017-12-19T12:35:34.598Z,6.36
2017-12-19T12:36:34.611Z,6.38
2017-12-19T12:37:34.627Z,6.33
2017-12-19T12:38:34.639Z,6.31
2017-12-19T12:39:34.650Z,6.37
2017-12-19T12:40:34.710Z,6.33
2017-12-19T12:41:34.776Z,6.33
2017-12-19T12:42:34.744Z,6.27
2017-12-19T12:43:35.289Z,6.34
2017-12-19T12:44:35.309Z,6.22
2017-12-19T12:45:34.732Z,6.27
2017-12-19T12:46:34.765Z,6.30
2017-12-19T12:47:34.857Z,6.25
2017-12-19T12:48:35.373Z,6.37
2017-12-19T12:49:34.787Z,6.37
2017-12-19T12:50:34.796Z,6.27
2017-12-19T12:51:34.811Z,6.27
2017-12-19T12:52:34.832Z,6.37
2017-12-19T12:53:34.882Z,6.31
2017-12-19T12:54:35.020Z,6.37
2017-12-19T12:55:34.866Z,6.43
2017-12-19T12:56:34.883Z,6.41
2017-12-19T12:57:34.891Z,6.43
2017-12-19T12:58:34.971Z,6.38
2017-12-19T12:59:34.912Z,6.38
2017-12-19T13:00:34.932Z,6.27
2017-12-19T13:01:34.941Z,6.48
2017-12-19T13:02:35.088Z,6.43
2017-12-19T13:03:34.967Z,6.36
2017-12-19T13:04:34.988Z,6.54
2017-12-19T13:05:35.024Z,6.49
2017-12-19T13:06:35.010Z,6.44
2017-12-19T13:07:35.026Z,6.51
2017-12-19T13:08:35.035Z,6.55
2017-12-19T13:09:35.054Z,6.43
2017-12-19T13:10:35.062Z,6.40
2017-12-19T13:12:35.092Z,6.44
2017-12-19T13:13:35.102Z,6.61
2017-12-19T13:14:35.141Z,6.54
2017-12-19T13:15:35.130Z,6.56
2017-12-19T13:16:35.343Z,6.56
2017-12-19T13:17:35.161Z,6.56
2017-12-19T13:18:35.174Z,6.52
2017-12-19T13:19:35.251Z,6.56
2017-12-19T13:20:35.428Z,6.54
2017-12-19T13:21:35.723Z,6.52
2017-12-19T13:22:35.329Z,6.58
2017-12-19T13:23:35.353Z,6.55
2017-12-19T13:25:35.436Z,6.61
2017-12-19T13:26:35.433Z,6.55
2017-12-19T13:27:35.292Z,6.56